Kish International

Airport
ICAO code: 
OIBK
IATA Code: 
KIH
Summary
ICAO Region: 
MID
Territory: 
Location: 
Kish Island, Kish Island
Serving: 
Kish Island
Elevation: 
101 ft
Coordinates: 
Aerial View: 
26° 31' 38.874" N, 53° 58' 58.532" E
Metar
Observation
OIBK 281400Z 29006KT 7000 NSC 35/25 Q0996 NOSIG
Station
Kish Island / Kish
Date/Time
2022-06-28 14:00:00
Wind direction
290°
Wind speed
06 kts
Lowest cloud amount
nil significant cloud
Temperature
35°C
Dew point
25°C
Humidity
56%
QNH
996 hPa
Weather condition
n/a

Kish International Airport is an airport on Kish Island, Iran.

Climatology

Warm Desert climate (Köppen climate classification BWh).

Runways

Designator Length Width Surface Rops
09L/27R 3659 66 ASP No/No
09R/27L 3659 45 ASP No/No
Airport map: 
Aerial View: 

Accidents and Serious Incidents at or in the vicinity of OIBK

SKYbrary Partners:

Safety knowledge contributed by: